createdAt,value
2024-01-16T00:03:13.168Z,97330.16
2024-01-16T00:08:16.396Z,97328.38
2024-01-16T00:13:20.983Z,97325.59
2024-01-16T00:18:24.464Z,97324.31
2024-01-16T00:23:27.679Z,97322.34
2024-01-16T00:28:34.112Z,97325.13
2024-01-16T00:33:37.704Z,97336.47
2024-01-16T00:38:40.970Z,97330.69
2024-01-16T00:43:45.896Z,97333.53
2024-01-16T00:48:49.236Z,97337.81
2024-01-16T00:53:52.613Z,97348.94
2024-01-16T00:58:57.129Z,97346.25
2024-01-16T01:04:00.339Z,97361.88
2024-01-16T01:09:04.230Z,97349.47
2024-01-16T01:14:08.850Z,97359.19
2024-01-16T01:19:12.196Z,97360.97
2024-01-16T01:24:15.439Z,97357.97
2024-01-16T01:29:19.898Z,97371.13
2024-01-16T01:34:23.120Z,97386.94
2024-01-16T01:39:26.338Z,97390.47
2024-01-16T01:44:30.846Z,97395.81
2024-01-16T01:49:34.548Z,97402.63
2024-01-16T01:54:39.395Z,97399.97
2024-01-16T01:59:44.290Z,97395.69
2024-01-16T02:04:48.355Z,97406.63
2024-01-16T02:09:52.324Z,97411.06
2024-01-16T02:14:56.796Z,97414.47
2024-01-16T02:19:59.904Z,97416.09
2024-01-16T02:25:04.761Z,97406.63
2024-01-16T02:30:09.462Z,97402.63
2024-01-16T02:35:12.667Z,97423.63
2024-01-16T02:40:17.361Z,97416.09
2024-01-16T02:45:20.516Z,97405.19
2024-01-16T02:50:24.194Z,97409.56
2024-01-16T02:55:28.695Z,97404.53
2024-01-16T03:00:31.875Z,97395.75
2024-01-16T03:05:35.112Z,97388.03
2024-01-16T03:10:39.701Z,97391.16
2024-01-16T03:15:43.139Z,97399.59
2024-01-16T03:20:46.304Z,97390.13
2024-01-16T03:25:50.807Z,97395.78
2024-01-16T03:30:55.455Z,97404.75
2024-01-16T03:35:58.763Z,97399.88
2024-01-16T03:41:04.712Z,97401.97
2024-01-16T03:46:08.813Z,97392.53
2024-01-16T03:51:12.099Z,97388.88
2024-01-16T03:56:17.439Z,97392.59
2024-01-16T04:01:20.651Z,97387.63
2024-01-16T04:06:23.864Z,97380.56
2024-01-16T04:11:28.392Z,97397.69
2024-01-16T04:16:31.528Z,97403.59
2024-01-16T04:21:34.641Z,97401.84
2024-01-16T04:26:39.918Z,97398.88
2024-01-16T04:31:43.796Z,97405.66
2024-01-16T04:36:46.915Z,97410.66
2024-01-16T04:41:51.467Z,97416.56
2024-01-16T04:46:54.867Z,97415.34
2024-01-16T04:51:58.013Z,97417.44
2024-01-16T04:57:02.482Z,97414.34
2024-01-16T05:02:05.932Z,97423.16
2024-01-16T05:07:09.090Z,97417.28
2024-01-16T05:12:13.701Z,97410.63
2024-01-16T05:17:16.838Z,97403.88
2024-01-16T05:22:19.953Z,97406.81
2024-01-16T05:27:24.428Z,97394.72
2024-01-16T05:32:27.612Z,97393.69
2024-01-16T05:37:30.902Z,97379.13
2024-01-16T05:42:35.374Z,97377.94
2024-01-16T05:47:38.592Z,97370.09
2024-01-16T05:52:44.925Z,97364.63
2024-01-16T05:57:50.660Z,97372.84
2024-01-16T06:02:53.878Z,97372.19
2024-01-16T06:07:57.938Z,97360.56
2024-01-16T06:13:02.423Z,97368.06
2024-01-16T06:18:06.321Z,97375.72
2024-01-16T06:23:09.588Z,97368.06
2024-01-16T06:28:14.233Z,97360.56
2024-01-16T06:33:17.588Z,97362.63
2024-01-16T06:38:20.853Z,97361.19
2024-01-16T06:43:25.816Z,97365.13
2024-01-16T06:48:29.118Z,97370.00
2024-01-16T06:53:32.413Z,97359.97
2024-01-16T06:58:37.377Z,97360.44
2024-01-16T07:03:40.524Z,97370.03
2024-01-16T07:08:43.766Z,97375.19
2024-01-16T07:13:48.304Z,97371.03
2024-01-16T07:18:51.543Z,97381.03
2024-01-16T07:23:54.733Z,97382.41
2024-01-16T07:28:59.571Z,97376.63
2024-01-16T07:34:02.749Z,97386.53
2024-01-16T07:39:06.020Z,97374.75
2024-01-16T07:44:10.548Z,97383.78
2024-01-16T07:49:13.715Z,97378.78
2024-01-16T07:54:16.853Z,97392.91
2024-01-16T07:59:21.389Z,97389.06
2024-01-16T08:04:24.537Z,97391.88
2024-01-16T08:09:27.741Z,97387.34
2024-01-16T08:14:32.394Z,97393.81
2024-01-16T08:19:35.685Z,97397.41
2024-01-16T08:24:39.824Z,97386.06
2024-01-16T08:29:44.342Z,97384.59
2024-01-16T08:34:48.462Z,97383.56
2024-01-16T08:39:51.807Z,97386.34
2024-01-16T08:44:56.320Z,97395.03
2024-01-16T08:49:59.619Z,97391.59
2024-01-16T08:55:02.781Z,97391.88
2024-01-16T09:00:10.025Z,97385.88
2024-01-16T09:05:14.568Z,97379.63
2024-01-16T09:10:18.257Z,97376.28
2024-01-16T09:15:22.759Z,97391.44
2024-01-16T09:20:25.981Z,97391.00
2024-01-16T09:25:32.216Z,97395.09
2024-01-16T09:30:36.652Z,97399.16
2024-01-16T09:35:40.124Z,97405.97
2024-01-16T09:40:43.262Z,97410.16
2024-01-16T09:45:49.686Z,97406.06
2024-01-16T09:50:52.938Z,97398.78
2024-01-16T09:56:02.349Z,97399.34
2024-01-16T10:01:08.159Z,97394.78
2024-01-16T10:06:12.717Z,97393.78
2024-01-16T10:11:15.922Z,97388.34
2024-01-16T10:16:23.577Z,97405.06
2024-01-16T10:21:32.772Z,97388.88
2024-01-16T10:26:35.891Z,97384.09
2024-01-16T10:31:41.620Z,97370.75
2024-01-16T10:36:45.023Z,97368.91
2024-01-16T10:41:57.442Z,97359.63
2024-01-16T10:47:17.372Z,97348.03
2024-01-16T10:52:21.765Z,97347.31
2024-01-16T10:57:26.983Z,97345.84
2024-01-16T11:02:39.980Z,97347.41
2024-01-16T11:07:44.943Z,97341.22
2024-01-16T11:12:49.076Z,97341.91
2024-01-16T11:17:54.034Z,97343.91
2024-01-16T11:23:00.718Z,97323.38
2024-01-16T11:28:11.981Z,97304.06
2024-01-16T11:33:47.472Z,97291.28
2024-01-16T11:38:58.810Z,97277.66
2024-01-16T11:44:01.994Z,97273.03
2024-01-16T11:49:07.073Z,97257.63
2024-01-16T11:54:10.578Z,97257.00
2024-01-16T12:00:13.884Z,97233.09
2024-01-16T12:05:18.669Z,97230.00
2024-01-16T12:10:24.444Z,97224.28
2024-01-16T12:15:28.622Z,97220.28
2024-01-16T12:20:35.266Z,97220.41
2024-01-16T12:26:01.203Z,97223.41
2024-01-16T12:31:04.199Z,97209.78
2024-01-16T12:36:11.895Z,97198.44
2024-01-16T12:41:15.659Z,97181.19
2024-01-16T12:46:20.823Z,97168.56
2024-01-16T12:51:25.309Z,97170.50
2024-01-16T12:56:37.760Z,97169.34
2024-01-16T13:01:44.294Z,97172.16
2024-01-16T13:06:50.001Z,97160.66
2024-01-16T13:11:56.693Z,97154.03
2024-01-16T13:17:02.499Z,97141.84
2024-01-16T13:22:08.035Z,97139.94
2024-01-16T13:27:14.156Z,97130.78
2024-01-16T13:32:17.374Z,97113.00
2024-01-16T13:37:24.277Z,97109.22
2024-01-16T13:42:27.377Z,97108.38
2024-01-16T13:47:30.939Z,97102.19
2024-01-16T13:52:36.553Z,97102.41
2024-01-16T13:57:39.994Z,97103.56
2024-01-16T14:02:43.830Z,97105.09
2024-01-16T14:07:52.107Z,97116.16
2024-01-16T14:12:55.276Z,97101.97
2024-01-16T14:17:59.434Z,97090.28
2024-01-16T14:23:04.978Z,97096.28
2024-01-16T14:28:14.992Z,97092.84
2024-01-16T14:33:21.708Z,97086.19
2024-01-16T14:38:26.273Z,97099.34
2024-01-16T14:43:29.469Z,97095.41
2024-01-16T14:48:32.701Z,97101.56
2024-01-16T14:53:37.226Z,97093.72
2024-01-16T14:58:40.578Z,97096.28
2024-01-16T15:03:43.777Z,97080.75
2024-01-16T15:08:49.452Z,97081.88
2024-01-16T15:13:52.723Z,97080.44
2024-01-16T15:18:56.640Z,97088.38
2024-01-16T15:24:01.288Z,97096.38
2024-01-16T15:29:04.544Z,97094.44
2024-01-16T15:34:08.006Z,97095.72
2024-01-16T15:39:12.542Z,97096.00
2024-01-16T15:44:15.759Z,97097.91
2024-01-16T15:49:18.958Z,97089.34
2024-01-16T15:54:24.621Z,97088.44
2024-01-16T15:59:27.912Z,97081.13
2024-01-16T16:04:31.029Z,97078.47
2024-01-16T16:09:36.922Z,97081.72
2024-01-16T16:14:41.435Z,97093.53
2024-01-16T16:19:46.758Z,97107.78
2024-01-16T16:24:51.263Z,97108.88
2024-01-16T16:29:58.001Z,97124.41
2024-01-16T16:35:01.282Z,97125.66
2024-01-16T16:40:07.131Z,97115.50
2024-01-16T16:45:12.700Z,97123.13
2024-01-16T16:50:15.950Z,97133.06
2024-01-16T16:55:20.635Z,97125.69
2024-01-16T17:00:23.735Z,97134.56
2024-01-16T17:05:27.083Z,97144.94
2024-01-16T17:10:31.985Z,97139.28
2024-01-16T17:15:35.076Z,97138.44
2024-01-16T17:20:38.290Z,97130.44
2024-01-16T17:25:43.145Z,97125.78
2024-01-16T17:30:47.339Z,97126.97
2024-01-16T17:35:50.942Z,97123.47
2024-01-16T17:40:55.534Z,97114.53
2024-01-16T17:45:59.126Z,97109.53
2024-01-16T17:51:02.429Z,97114.00
2024-01-16T17:56:10.229Z,97105.03
2024-01-16T18:01:13.532Z,97097.84
2024-01-16T18:06:18.542Z,97088.00
2024-01-16T18:11:24.392Z,97084.75
2024-01-16T18:16:27.698Z,97091.09
2024-01-16T18:21:30.867Z,97090.66
2024-01-16T18:26:37.383Z,97098.34
2024-01-16T18:31:40.658Z,97091.28
2024-01-16T18:36:49.759Z,97087.63
2024-01-16T18:41:54.685Z,97076.31
2024-01-16T18:46:57.897Z,97072.75
2024-01-16T18:52:04.454Z,97075.72
2024-01-16T18:57:10.447Z,97079.25
2024-01-16T19:02:18.103Z,97064.84
2024-01-16T19:07:24.773Z,97059.41
2024-01-16T19:12:29.336Z,97037.97
2024-01-16T19:17:32.684Z,97035.75
2024-01-16T19:22:35.883Z,97028.97
2024-01-16T19:27:41.963Z,97023.56
2024-01-16T19:32:46.414Z,97018.88
2024-01-16T19:37:49.582Z,97002.13
2024-01-16T19:42:55.619Z,96993.44
2024-01-16T19:47:58.978Z,96983.91
2024-01-16T19:53:04.014Z,96987.28
2024-01-16T19:58:10.157Z,96987.44
2024-01-16T20:03:14.170Z,96986.97
2024-01-16T20:08:17.454Z,96977.88
2024-01-16T20:13:21.900Z,96981.25
2024-01-16T20:18:25.181Z,96976.69
2024-01-16T20:23:29.492Z,96963.47
2024-01-16T20:28:34.300Z,96952.13
2024-01-16T20:33:37.631Z,96940.69
2024-01-16T20:38:41.554Z,96924.38
2024-01-16T20:43:46.096Z,96927.94
2024-01-16T20:48:49.801Z,96928.78
2024-01-16T20:53:53.128Z,96925.69
2024-01-16T20:58:57.614Z,96920.41
2024-01-16T21:04:00.747Z,96918.69
2024-01-16T21:09:04.707Z,96912.06
2024-01-16T21:14:09.205Z,96914.09
2024-01-16T21:19:17.462Z,96906.03
2024-01-16T21:24:21.243Z,96909.06
2024-01-16T21:29:26.330Z,96891.94
2024-01-16T21:34:29.523Z,96896.03
2024-01-16T21:39:33.826Z,96895.56
2024-01-16T21:44:38.308Z,96889.13
2024-01-16T21:49:42.257Z,96874.75
2024-01-16T21:54:45.425Z,96875.50
2024-01-16T21:59:49.946Z,96869.19
2024-01-16T22:04:54.389Z,96856.25
2024-01-16T22:09:57.593Z,96849.97
2024-01-16T22:15:02.443Z,96830.47
2024-01-16T22:20:07.537Z,96827.84
2024-01-16T22:25:11.493Z,96812.41
2024-01-16T22:30:17.251Z,96807.72
2024-01-16T22:35:20.593Z,96806.84
2024-01-16T22:40:24.305Z,96806.94
2024-01-16T22:45:28.818Z,96805.78
2024-01-16T22:50:31.997Z,96786.16
2024-01-16T22:55:35.476Z,96772.06
2024-01-16T23:00:40.936Z,96761.81
2024-01-16T23:05:45.300Z,96770.91
2024-01-16T23:10:48.691Z,96749.81
2024-01-16T23:15:53.971Z,96747.59
2024-01-16T23:20:57.190Z,96743.50
2024-01-16T23:26:00.695Z,96751.25
2024-01-16T23:31:06.408Z,96751.25
2024-01-16T23:36:10.565Z,96753.91
2024-01-16T23:41:13.717Z,96726.94
2024-01-16T23:46:18.255Z,96718.44
2024-01-16T23:51:21.398Z,96700.53
2024-01-16T23:56:24.605Z,96686.63
